createdAt,value
2022-07-30T00:00:25.935Z,87489.91
2022-07-30T00:02:53.441Z,87486.91
2022-07-30T00:05:21.171Z,87494.50
2022-07-30T00:07:48.354Z,87487.31
2022-07-30T00:10:15.672Z,87491.81
2022-07-30T00:12:43.073Z,87483.06
2022-07-30T00:15:10.498Z,87479.31
2022-07-30T00:17:37.954Z,87483.53
2022-07-30T00:20:06.184Z,87483.53
2022-07-30T00:22:33.503Z,87485.06
2022-07-30T00:25:00.762Z,87477.81
2022-07-30T00:27:28.017Z,87483.97
2022-07-30T00:29:55.191Z,87478.19
2022-07-30T00:32:22.355Z,87478.63
2022-07-30T00:34:49.571Z,87481.28
2022-07-30T00:37:16.776Z,87485.47
2022-07-30T00:39:44.017Z,87492.38
2022-07-30T00:42:11.204Z,87487.06
2022-07-30T00:44:41.144Z,87491.28
2022-07-30T00:47:08.684Z,87487.53
2022-07-30T00:49:35.868Z,87487.09
2022-07-30T00:52:03.244Z,87489.03
2022-07-30T00:54:31.771Z,87486.78
2022-07-30T00:56:59.271Z,87487.94
2022-07-30T00:59:26.640Z,87484.53
2022-07-30T01:01:54.944Z,87483.00
2022-07-30T01:04:22.317Z,87481.91
2022-07-30T01:06:49.594Z,87485.44
2022-07-30T01:09:16.979Z,87487.00
2022-07-30T01:11:44.616Z,87489.25
2022-07-30T01:14:12.672Z,87483.16
2022-07-30T01:16:43.244Z,87477.13
2022-07-30T01:19:21.668Z,87483.66
2022-07-30T01:22:07.309Z,87479.47
2022-07-30T01:24:55.946Z,87484.06
2022-07-30T01:27:26.462Z,87478.72
2022-07-30T01:29:56.774Z,87473.84
2022-07-30T01:32:27.284Z,87480.72
2022-07-30T01:34:59.000Z,87470.47
2022-07-30T01:37:28.087Z,87478.94
2022-07-30T01:39:56.863Z,87473.25
2022-07-30T01:42:28.837Z,87473.66
2022-07-30T01:44:59.294Z,87479.41
2022-07-30T01:47:30.654Z,87477.22
2022-07-30T01:50:00.149Z,87477.56
2022-07-30T01:52:32.451Z,87476.88
2022-07-30T01:55:02.598Z,87470.78
2022-07-30T01:57:35.901Z,87469.63
2022-07-30T02:00:08.086Z,87475.38
2022-07-30T02:02:36.990Z,87472.72
2022-07-30T02:05:06.267Z,87478.09
2022-07-30T02:07:40.128Z,87475.84
2022-07-30T02:10:44.084Z,87475.50
2022-07-30T02:13:17.703Z,87478.19
2022-07-30T02:16:06.193Z,87473.66
2022-07-30T02:18:44.563Z,87469.91
2022-07-30T02:21:14.254Z,87463.81
2022-07-30T02:23:45.331Z,87461.22
2022-07-30T02:26:22.832Z,87462.75
2022-07-30T02:28:56.710Z,87459.78
2022-07-30T02:31:27.892Z,87460.13
2022-07-30T02:34:02.959Z,87453.78
2022-07-30T02:36:33.409Z,87461.78
2022-07-30T02:39:06.634Z,87459.78
2022-07-30T02:41:38.472Z,87462.91
2022-07-30T02:44:07.453Z,87460.59
2022-07-30T02:46:37.723Z,87465.19
2022-07-30T02:49:09.403Z,87454.59
2022-07-30T02:51:37.992Z,87459.09
2022-07-30T02:54:08.476Z,87458.34
2022-07-30T02:56:41.254Z,87463.75
2022-07-30T02:59:10.647Z,87462.66
2022-07-30T03:01:38.698Z,87451.56
2022-07-30T03:04:07.994Z,87456.97
2022-07-30T03:06:36.673Z,87461.19
2022-07-30T03:09:05.894Z,87450.91
2022-07-30T03:11:35.015Z,87454.34
2022-07-30T03:14:03.265Z,87462.75
2022-07-30T03:16:36.863Z,87451.00
2022-07-30T03:19:08.701Z,87452.47
2022-07-30T03:21:38.667Z,87460.47
2022-07-30T03:24:09.048Z,87457.47
2022-07-30T03:26:38.210Z,87454.47
2022-07-30T03:29:08.742Z,87455.97
2022-07-30T03:31:39.747Z,87459.78
2022-07-30T03:34:09.482Z,87451.81
2022-07-30T03:36:40.592Z,87459.03
2022-07-30T03:39:08.466Z,87460.22
2022-07-30T03:41:38.527Z,87458.00
2022-07-30T03:44:07.849Z,87462.56
2022-07-30T03:46:37.994Z,87464.09
2022-07-30T03:49:06.222Z,87472.09
2022-07-30T03:51:36.922Z,87460.34
2022-07-30T03:54:04.862Z,87473.22
2022-07-30T03:56:33.803Z,87481.22
2022-07-30T03:59:01.971Z,87479.75
2022-07-30T04:01:29.322Z,87483.56
2022-07-30T04:04:04.522Z,87485.06
2022-07-30T04:06:31.881Z,87489.63
2022-07-30T04:08:59.048Z,87487.78
2022-07-30T04:11:41.722Z,87491.66
2022-07-30T04:14:09.754Z,87487.16
2022-07-30T04:17:02.888Z,87491.31
2022-07-30T04:19:43.696Z,87483.31
2022-07-30T04:22:15.448Z,87489.81
2022-07-30T04:24:45.203Z,87483.41
2022-07-30T04:27:12.862Z,87494.38
2022-07-30T04:29:41.426Z,87492.94
2022-07-30T04:32:09.617Z,87489.88
2022-07-30T04:34:37.325Z,87494.44
2022-07-30T04:37:04.822Z,87494.44
2022-07-30T04:39:32.123Z,87495.16
2022-07-30T04:41:59.645Z,87499.72
2022-07-30T04:44:26.813Z,87502.03
2022-07-30T04:46:54.356Z,87503.53
2022-07-30T04:49:23.378Z,87500.06
2022-07-30T04:51:52.587Z,87506.41
2022-07-30T04:54:24.367Z,87507.19
2022-07-30T04:56:54.793Z,87503.75
2022-07-30T04:59:27.443Z,87505.53
2022-07-30T05:01:59.550Z,87508.22
2022-07-30T05:04:29.096Z,87506.72
2022-07-30T05:06:58.071Z,87513.16
2022-07-30T05:09:26.573Z,87510.41
2022-07-30T05:11:55.844Z,87500.84
2022-07-30T05:14:24.864Z,87503.88
2022-07-30T05:16:53.202Z,87504.53
2022-07-30T05:19:21.465Z,87504.13
2022-07-30T05:21:48.656Z,87509.44
2022-07-30T05:24:15.974Z,87507.53
2022-07-30T05:26:43.739Z,87507.88
2022-07-30T05:29:19.419Z,87501.41
2022-07-30T05:31:47.475Z,87494.97
2022-07-30T05:34:15.185Z,87504.78
2022-07-30T05:36:42.415Z,87502.50
2022-07-30T05:39:09.653Z,87501.75
2022-07-30T05:41:37.014Z,87503.31
2022-07-30T05:44:07.871Z,87502.56
2022-07-30T05:46:35.641Z,87492.31
2022-07-30T05:49:03.262Z,87490.44
2022-07-30T05:51:30.416Z,87492.69
2022-07-30T05:53:57.727Z,87484.38
2022-07-30T05:56:25.001Z,87495.03
2022-07-30T05:58:52.283Z,87498.06
2022-07-30T06:01:19.557Z,87505.31
2022-07-30T06:03:46.807Z,87502.66
2022-07-30T06:06:14.081Z,87500.75
2022-07-30T06:08:41.372Z,87497.31
2022-07-30T06:11:08.819Z,87505.69
2022-07-30T06:13:36.996Z,87518.63
2022-07-30T06:16:05.152Z,87520.88
2022-07-30T06:18:32.573Z,87517.06
2022-07-30T06:20:59.846Z,87522.38
2022-07-30T06:23:27.415Z,87516.16
2022-07-30T06:25:54.648Z,87515.41
2022-07-30T06:28:37.009Z,87521.09
2022-07-30T06:31:05.510Z,87516.91
2022-07-30T06:33:33.290Z,87525.94
2022-07-30T06:36:00.526Z,87512.53
2022-07-30T06:38:29.098Z,87510.75
2022-07-30T06:41:02.372Z,87512.28
2022-07-30T06:43:30.396Z,87505.78
2022-07-30T06:45:57.593Z,87504.41
2022-07-30T06:48:24.843Z,87506.19
2022-07-30T06:50:52.131Z,87510.31
2022-07-30T06:53:19.290Z,87509.41
2022-07-30T06:55:46.460Z,87504.38
2022-07-30T06:58:13.610Z,87508.06
2022-07-30T07:00:40.819Z,87504.56
2022-07-30T07:03:11.681Z,87501.00
2022-07-30T07:05:39.591Z,87501.34
2022-07-30T07:08:06.850Z,87513.13
2022-07-30T07:10:34.346Z,87506.97
2022-07-30T07:13:01.536Z,87512.97
2022-07-30T07:15:36.292Z,87509.50
2022-07-30T07:18:05.837Z,87513.31
2022-07-30T07:20:34.820Z,87518.66
2022-07-30T07:23:08.717Z,87519.81
2022-07-30T07:25:37.005Z,87520.66
2022-07-30T07:28:12.522Z,87520.91
2022-07-30T07:30:42.146Z,87525.09
2022-07-30T07:33:10.036Z,87528.75
2022-07-30T07:35:45.579Z,87520.69
2022-07-30T07:38:18.570Z,87520.91
2022-07-30T07:40:47.342Z,87526.94
2022-07-30T07:43:15.544Z,87518.44
2022-07-30T07:45:43.697Z,87517.53
2022-07-30T07:48:11.606Z,87515.53
2022-07-30T07:50:39.070Z,87523.06
2022-07-30T07:53:15.949Z,87522.56
2022-07-30T07:55:43.177Z,87520.16
2022-07-30T07:58:11.365Z,87521.91
2022-07-30T08:00:38.631Z,87511.91
2022-07-30T08:03:06.079Z,87522.59
2022-07-30T08:05:56.899Z,87519.41
2022-07-30T08:08:20.707Z,87520.34
2022-07-30T08:10:48.310Z,87522.19
2022-07-30T08:13:49.017Z,87521.00
2022-07-30T08:16:03.345Z,87520.66
2022-07-30T08:18:30.579Z,87522.34
2022-07-30T08:20:57.784Z,87525.44
2022-07-30T08:23:42.518Z,87523.44
2022-07-30T08:26:10.569Z,87520.75
2022-07-30T08:28:37.814Z,87524.09
2022-07-30T08:31:05.134Z,87519.91
2022-07-30T08:33:32.326Z,87521.34
2022-07-30T08:36:04.260Z,87521.69
2022-07-30T08:38:39.500Z,87517.78
2022-07-30T08:41:07.135Z,87520.34
2022-07-30T08:43:37.088Z,87522.13
2022-07-30T08:46:09.770Z,87518.13
2022-07-30T08:48:38.007Z,87521.03
2022-07-30T08:51:05.973Z,87519.28
2022-07-30T08:53:35.114Z,87525.53
2022-07-30T08:56:03.811Z,87525.69
2022-07-30T08:58:34.300Z,87511.13
2022-07-30T09:01:02.575Z,87518.97
2022-07-30T09:03:30.457Z,87515.22
2022-07-30T09:05:57.755Z,87522.09
2022-07-30T09:08:25.213Z,87517.38
2022-07-30T09:10:53.177Z,87506.50
2022-07-30T09:13:33.546Z,87513.16
2022-07-30T09:16:01.626Z,87508.16
2022-07-30T09:18:40.855Z,87500.34
2022-07-30T09:21:23.097Z,87494.38
2022-07-30T09:23:59.472Z,87504.34
2022-07-30T09:26:28.106Z,87498.94
2022-07-30T09:29:14.542Z,87498.41
2022-07-30T09:32:06.526Z,87494.34
2022-07-30T09:34:36.224Z,87495.66
2022-07-30T09:37:18.426Z,87486.56
2022-07-30T09:39:59.101Z,87492.91
2022-07-30T09:42:29.390Z,87492.38
2022-07-30T09:45:14.084Z,87494.75
2022-07-30T09:47:45.977Z,87487.25
2022-07-30T09:50:29.688Z,87499.47
2022-07-30T09:53:09.670Z,87499.81
2022-07-30T09:55:41.828Z,87499.31
2022-07-30T10:01:00.334Z,87506.91
2022-07-30T10:03:34.289Z,87507.41
2022-07-30T10:06:03.078Z,87508.94
2022-07-30T10:08:48.020Z,87507.63
2022-07-30T10:11:22.749Z,87516.13
2022-07-30T10:13:58.788Z,87517.19
2022-07-30T10:16:30.551Z,87523.63
2022-07-30T10:18:59.177Z,87525.69
2022-07-30T10:21:28.603Z,87520.94
2022-07-30T10:24:00.689Z,87530.16
2022-07-30T10:26:33.245Z,87522.66
2022-07-30T10:29:03.187Z,87522.03
2022-07-30T10:31:48.364Z,87525.69
2022-07-30T10:34:23.631Z,87532.31
2022-07-30T10:37:01.797Z,87537.78
2022-07-30T10:39:47.124Z,87539.69
2022-07-30T10:42:46.214Z,87535.41
2022-07-30T10:45:24.725Z,87547.66
2022-07-30T10:47:55.266Z,87540.00
2022-07-30T10:50:24.829Z,87547.09
2022-07-30T10:52:57.950Z,87552.88
2022-07-30T10:55:38.628Z,87548.81
2022-07-30T10:58:14.373Z,87555.69
2022-07-30T11:00:52.247Z,87555.13
2022-07-30T11:03:23.567Z,87554.59
2022-07-30T11:06:24.327Z,87561.47
2022-07-30T11:08:52.387Z,87554.91
2022-07-30T11:11:59.274Z,87552.53
2022-07-30T11:14:11.959Z,87561.25
2022-07-30T11:16:40.164Z,87556.63
2022-07-30T11:19:56.746Z,87550.41
2022-07-30T11:22:29.959Z,87559.19
2022-07-30T11:24:58.355Z,87555.66
2022-07-30T11:27:46.481Z,87547.25
2022-07-30T11:30:23.373Z,87551.22
2022-07-30T11:33:15.198Z,87551.69
2022-07-30T11:35:42.811Z,87553.50
2022-07-30T11:38:22.491Z,87555.13
2022-07-30T11:40:49.696Z,87557.69
2022-07-30T11:43:35.167Z,87559.63
2022-07-30T11:46:16.346Z,87552.91
2022-07-30T11:49:00.520Z,87544.84
2022-07-30T11:51:27.943Z,87559.09
2022-07-30T11:54:08.104Z,87558.44
2022-07-30T11:56:35.360Z,87555.16
2022-07-30T11:59:07.231Z,87562.34
2022-07-30T12:01:36.013Z,87562.59
2022-07-30T12:04:07.676Z,87567.81
2022-07-30T12:06:44.094Z,87563.44
2022-07-30T12:09:11.554Z,87566.13
2022-07-30T12:11:38.754Z,87560.34
2022-07-30T12:14:06.097Z,87564.09
2022-07-30T12:16:34.307Z,87562.78
2022-07-30T12:19:10.844Z,87556.31
2022-07-30T12:21:38.219Z,87556.38
2022-07-30T12:24:06.796Z,87561.66
2022-07-30T12:26:35.128Z,87561.84
2022-07-30T12:29:06.269Z,87557.44
2022-07-30T12:31:34.145Z,87557.03
2022-07-30T12:34:05.924Z,87560.22
2022-07-30T12:36:35.685Z,87564.72
2022-07-30T12:39:05.300Z,87560.38
2022-07-30T12:42:02.024Z,87562.38
2022-07-30T12:44:43.464Z,87561.19
2022-07-30T12:47:31.347Z,87557.06
2022-07-30T12:50:01.681Z,87552.16
2022-07-30T12:52:31.882Z,87554.72
2022-07-30T12:55:04.032Z,87552.63
2022-07-30T12:57:55.932Z,87547.94
2022-07-30T13:00:31.528Z,87551.34
2022-07-30T13:02:59.400Z,87551.47
2022-07-30T13:05:46.370Z,87556.31
2022-07-30T13:08:14.007Z,87548.78
2022-07-30T13:10:59.304Z,87546.91
2022-07-30T13:13:28.161Z,87546.69
2022-07-30T13:16:04.068Z,87555.03
2022-07-30T13:18:33.856Z,87547.81
2022-07-30T13:21:02.808Z,87544.75
2022-07-30T13:23:30.086Z,87548.59
2022-07-30T13:25:58.258Z,87539.50
2022-07-30T13:28:26.220Z,87539.00
2022-07-30T13:30:53.474Z,87531.75
2022-07-30T13:33:20.643Z,87533.78
2022-07-30T13:35:47.970Z,87532.47
2022-07-30T13:38:15.330Z,87530.91
2022-07-30T13:40:43.027Z,87532.03
2022-07-30T13:43:10.610Z,87532.13
2022-07-30T13:45:37.902Z,87523.22
2022-07-30T13:48:05.384Z,87513.94
2022-07-30T13:50:32.679Z,87521.78
2022-07-30T13:53:02.498Z,87532.81
2022-07-30T13:55:30.653Z,87516.53
2022-07-30T13:57:58.251Z,87521.50
2022-07-30T14:00:25.544Z,87513.09
2022-07-30T14:02:52.747Z,87515.00
2022-07-30T14:05:19.941Z,87511.25
2022-07-30T14:07:47.056Z,87503.75
2022-07-30T14:10:14.297Z,87510.47
2022-07-30T14:12:41.482Z,87507.97
2022-07-30T14:15:09.497Z,87511.28
2022-07-30T14:17:36.719Z,87511.97
2022-07-30T14:20:05.389Z,87507.25
2022-07-30T14:22:32.637Z,87517.25
2022-07-30T14:24:59.853Z,87504.72
2022-07-30T14:27:27.049Z,87508.94
2022-07-30T14:29:54.222Z,87500.97
2022-07-30T14:32:21.425Z,87511.63
2022-07-30T14:34:50.982Z,87506.34
2022-07-30T14:37:18.238Z,87505.34
2022-07-30T14:39:45.448Z,87505.78
2022-07-30T14:42:12.733Z,87504.53
2022-07-30T14:44:40.363Z,87507.19
2022-07-30T14:47:08.177Z,87501.59
2022-07-30T14:49:35.848Z,87501.78
2022-07-30T14:52:03.169Z,87502.97
2022-07-30T14:54:31.194Z,87495.25
2022-07-30T14:57:12.238Z,87504.38
2022-07-30T14:59:40.179Z,87514.88
2022-07-30T15:02:10.671Z,87509.81
2022-07-30T15:04:38.361Z,87510.41
2022-07-30T15:07:06.919Z,87518.34
2022-07-30T15:09:34.241Z,87513.84
2022-07-30T15:12:09.930Z,87516.88
2022-07-30T15:14:41.044Z,87518.88
2022-07-30T15:17:08.698Z,87519.06
2022-07-30T15:19:35.907Z,87513.84
2022-07-30T15:22:03.602Z,87520.13
2022-07-30T15:24:31.982Z,87531.59
2022-07-30T15:26:59.849Z,87528.56
2022-07-30T15:29:27.129Z,87525.34
2022-07-30T15:31:54.519Z,87530.50
2022-07-30T15:34:21.786Z,87536.38
2022-07-30T15:36:48.983Z,87538.63
2022-07-30T15:39:16.378Z,87536.09
2022-07-30T15:41:43.783Z,87530.19
2022-07-30T15:44:11.384Z,87526.81
2022-07-30T15:46:38.695Z,87532.44
2022-07-30T15:49:05.948Z,87530.78
2022-07-30T15:51:33.507Z,87545.16
2022-07-30T15:54:00.748Z,87537.31
2022-07-30T15:56:28.077Z,87528.13
2022-07-30T15:58:55.690Z,87533.69
2022-07-30T16:01:23.034Z,87532.72
2022-07-30T16:03:50.308Z,87526.94
2022-07-30T16:06:17.501Z,87532.03
2022-07-30T16:08:44.705Z,87529.03
2022-07-30T16:11:11.918Z,87538.63
2022-07-30T16:13:39.074Z,87543.41
2022-07-30T16:16:06.510Z,87537.03
2022-07-30T16:18:33.726Z,87529.03
2022-07-30T16:21:01.255Z,87541.13
2022-07-30T16:23:36.554Z,87556.13
2022-07-30T16:26:05.317Z,87547.50
2022-07-30T16:28:32.731Z,87546.94
2022-07-30T16:30:59.964Z,87545.75
2022-07-30T16:33:27.148Z,87547.28
2022-07-30T16:35:54.333Z,87552.38
2022-07-30T16:38:22.317Z,87567.44
2022-07-30T16:40:49.923Z,87565.94
2022-07-30T16:43:19.914Z,87563.56
2022-07-30T16:45:48.453Z,87569.84
2022-07-30T16:48:15.856Z,87573.91
2022-07-30T16:50:43.933Z,87578.94
2022-07-30T16:53:14.229Z,87587.63
2022-07-30T16:55:43.484Z,87601.38
2022-07-30T16:58:11.532Z,87614.91
2022-07-30T17:00:39.750Z,87619.03
2022-07-30T17:03:07.466Z,87616.16
2022-07-30T17:05:34.997Z,87628.56
2022-07-30T17:08:02.239Z,87639.59
2022-07-30T17:10:29.704Z,87651.78
2022-07-30T17:12:57.650Z,87649.53
2022-07-30T17:15:32.080Z,87652.88
2022-07-30T17:18:01.837Z,87655.97
2022-07-30T17:20:31.479Z,87656.38
2022-07-30T17:22:58.750Z,87655.25
2022-07-30T17:25:26.855Z,87645.56
2022-07-30T17:27:56.104Z,87652.66
2022-07-30T17:30:24.460Z,87661.03
2022-07-30T17:32:52.769Z,87662.88
2022-07-30T17:35:20.444Z,87660.53
2022-07-30T17:37:47.934Z,87670.91
2022-07-30T17:40:29.079Z,87676.47
2022-07-30T17:43:00.012Z,87672.69
2022-07-30T17:45:27.193Z,87676.22
2022-07-30T17:47:54.412Z,87677.31
2022-07-30T17:50:21.762Z,87670.34
2022-07-30T17:52:49.012Z,87671.94
2022-07-30T17:55:16.169Z,87668.59
2022-07-30T17:57:43.388Z,87677.09
2022-07-30T18:00:11.357Z,87676.56
2022-07-30T18:02:38.487Z,87681.84
2022-07-30T18:05:06.203Z,87682.00
2022-07-30T18:07:33.424Z,87686.38
2022-07-30T18:10:00.707Z,87689.84
2022-07-30T18:12:28.024Z,87681.78
2022-07-30T18:14:55.564Z,87689.50
2022-07-30T18:17:23.315Z,87688.69
2022-07-30T18:19:50.537Z,87696.44
2022-07-30T18:22:22.264Z,87694.13
2022-07-30T18:24:57.844Z,87700.97
2022-07-30T18:27:25.521Z,87706.97
2022-07-30T18:29:52.704Z,87707.31
2022-07-30T18:32:19.958Z,87709.09
2022-07-30T18:34:47.179Z,87725.34
2022-07-30T18:37:14.491Z,87716.41
2022-07-30T18:39:41.748Z,87717.84
2022-07-30T18:42:29.212Z,87722.19
2022-07-30T18:44:56.509Z,87723.88
2022-07-30T18:47:23.758Z,87716.34
2022-07-30T18:49:51.349Z,87720.41
2022-07-30T18:52:18.592Z,87717.03
2022-07-30T18:54:45.861Z,87720.22
2022-07-30T18:57:14.589Z,87726.84
2022-07-30T18:59:42.165Z,87732.91
2022-07-30T19:02:09.525Z,87726.47
2022-07-30T19:04:36.976Z,87729.22
2022-07-30T19:07:04.227Z,87737.25
2022-07-30T19:09:31.626Z,87737.00
2022-07-30T19:11:59.034Z,87746.19
2022-07-30T19:14:26.229Z,87752.31
2022-07-30T19:16:53.385Z,87758.91
2022-07-30T19:19:26.955Z,87765.84
2022-07-30T19:21:54.532Z,87757.72
2022-07-30T19:24:21.846Z,87764.31
2022-07-30T19:26:50.088Z,87766.25
2022-07-30T19:29:17.362Z,87767.50
2022-07-30T19:31:44.689Z,87767.16
2022-07-30T19:34:11.889Z,87771.84
2022-07-30T19:36:39.353Z,87771.91
2022-07-30T19:41:54.402Z,87769.81
2022-07-30T19:44:21.627Z,87774.06
2022-07-30T19:46:48.946Z,87774.13
2022-07-30T19:49:19.828Z,87778.38
2022-07-30T19:52:09.925Z,87770.88
2022-07-30T19:54:36.883Z,87762.91
2022-07-30T19:57:04.709Z,87764.16
2022-07-30T19:59:45.587Z,87765.38
2022-07-30T20:02:19.375Z,87763.53
2022-07-30T20:04:51.121Z,87768.97
2022-07-30T20:07:18.557Z,87767.44
2022-07-30T20:09:48.449Z,87774.72
2022-07-30T20:12:16.141Z,87778.66
2022-07-30T20:14:44.517Z,87777.56
2022-07-30T20:17:11.872Z,87770.88
2022-07-30T20:19:39.109Z,87776.34
2022-07-30T20:22:16.513Z,87775.31
2022-07-30T20:24:45.362Z,87771.22
2022-07-30T20:27:37.183Z,87770.63
2022-07-30T20:29:59.886Z,87772.22
2022-07-30T20:32:28.176Z,87773.94
2022-07-30T20:34:56.497Z,87773.38
2022-07-30T20:37:23.653Z,87775.41
2022-07-30T20:39:55.588Z,87773.66
2022-07-30T20:42:24.227Z,87779.09
2022-07-30T20:44:52.395Z,87779.50
2022-07-30T20:47:34.329Z,87783.75
2022-07-30T20:50:03.257Z,87778.09
2022-07-30T20:52:30.481Z,87775.56
2022-07-30T20:54:57.780Z,87777.47
2022-07-30T20:57:56.783Z,87780.13
2022-07-30T21:00:12.765Z,87780.88
2022-07-30T21:02:39.983Z,87779.38
2022-07-30T21:05:07.865Z,87789.28
2022-07-30T21:07:36.703Z,87785.91
2022-07-30T21:10:05.093Z,87774.91
2022-07-30T21:12:34.560Z,87795.44
2022-07-30T21:15:01.772Z,87792.00
2022-07-30T21:17:28.967Z,87795.47
2022-07-30T21:19:57.462Z,87798.97
2022-07-30T21:22:24.661Z,87796.00
2022-07-30T21:24:51.900Z,87789.19
2022-07-30T21:27:19.211Z,87805.19
2022-07-30T21:29:46.908Z,87797.56
2022-07-30T21:32:15.111Z,87803.41
2022-07-30T21:34:46.335Z,87798.50
2022-07-30T21:37:15.691Z,87802.38
2022-07-30T21:39:43.218Z,87798.25
2022-07-30T21:42:11.375Z,87790.28
2022-07-30T21:44:58.884Z,87796.88
2022-07-30T21:47:26.179Z,87780.97
2022-07-30T21:49:53.365Z,87781.00
2022-07-30T21:52:20.556Z,87786.75
2022-07-30T21:54:48.655Z,87787.56
2022-07-30T21:57:26.123Z,87794.09
2022-07-30T21:59:55.253Z,87805.22
2022-07-30T22:02:25.984Z,87800.25
2022-07-30T22:04:55.431Z,87795.34
2022-07-30T22:07:22.734Z,87800.69
2022-07-30T22:09:49.931Z,87802.63
2022-07-30T22:12:18.111Z,87801.84
2022-07-30T22:14:49.318Z,87796.16
2022-07-30T22:17:23.670Z,87800.38
2022-07-30T22:20:08.780Z,87797.38
2022-07-30T22:22:39.131Z,87792.81
2022-07-30T22:25:09.794Z,87790.22
2022-07-30T22:27:56.675Z,87785.28
2022-07-30T22:30:26.989Z,87780.03
2022-07-30T22:32:55.534Z,87784.28
2022-07-30T22:35:32.487Z,87789.22
2022-07-30T22:38:02.924Z,87781.63
2022-07-30T22:40:31.077Z,87780.13
2022-07-30T22:42:58.539Z,87789.69
2022-07-30T22:45:48.150Z,87781.69
2022-07-30T22:48:13.143Z,87775.59
2022-07-30T22:50:40.615Z,87774.84
2022-07-30T22:54:09.923Z,87771.81
2022-07-30T22:55:55.634Z,87777.22
2022-07-30T22:58:26.227Z,87765.38
2022-07-30T23:01:06.725Z,87761.59
2022-07-30T23:03:34.264Z,87770.41
2022-07-30T23:06:01.509Z,87767.81
2022-07-30T23:08:30.967Z,87764.81
2022-07-30T23:10:59.048Z,87764.47
2022-07-30T23:12:16.841Z,87783.44
2022-07-30T23:13:27.782Z,87760.00
2022-07-30T23:15:54.973Z,87761.91
2022-07-30T23:18:22.180Z,87766.88
2022-07-30T23:20:49.384Z,87759.72
2022-07-30T23:23:16.616Z,87766.22
2022-07-30T23:25:46.272Z,87754.81
2022-07-30T23:28:13.626Z,87749.53
2022-07-30T23:30:40.942Z,87747.66
2022-07-30T23:33:08.140Z,87742.75
2022-07-30T23:35:35.340Z,87731.78
2022-07-30T23:38:02.619Z,87745.13
2022-07-30T23:40:29.948Z,87752.03
2022-07-30T23:42:57.172Z,87760.03
2022-07-30T23:45:24.397Z,87763.50
2022-07-30T23:48:01.843Z,87760.44
2022-07-30T23:50:32.790Z,87761.97
2022-07-30T23:53:03.341Z,87759.34
2022-07-30T23:55:32.167Z,87759.03
2022-07-30T23:57:59.536Z,87757.53
